sensor_id;sensor_type;location;lat;lon;timestamp;pressure;altitude;pressure_sealevel;temperature;humidity
12360;BME280;6244;51.460;7.090;2022-09-12T00:01:04;98494.00;;;10.47;90.46
12360;BME280;6244;51.460;7.090;2022-09-12T00:06:07;98497.38;;;10.49;90.46
12360;BME280;6244;51.460;7.090;2022-09-12T00:11:06;98494.00;;;10.47;90.67
12360;BME280;6244;51.460;7.090;2022-09-12T00:16:04;98483.94;;;10.41;90.44
12360;BME280;6244;51.460;7.090;2022-09-12T00:21:02;98491.69;;;10.43;90.38
12360;BME280;6244;51.460;7.090;2022-09-12T00:25:59;98487.50;;;10.40;90.60
12360;BME280;6244;51.460;7.090;2022-09-12T00:30:59;98483.94;;;10.27;90.81
12360;BME280;6244;51.460;7.090;2022-09-12T00:36:03;98479.00;;;10.23;90.80
12360;BME280;6244;51.460;7.090;2022-09-12T00:41:00;98465.16;;;10.21;90.62
12360;BME280;6244;51.460;7.090;2022-09-12T00:45:57;98454.69;;;10.21;90.64
12360;BME280;6244;51.460;7.090;2022-09-12T00:50:55;98459.50;;;10.14;90.77
12360;BME280;6244;51.460;7.090;2022-09-12T00:55:54;98453.09;;;10.04;90.55
12360;BME280;6244;51.460;7.090;2022-09-12T01:00:51;98451.44;;;10.03;90.62
12360;BME280;6244;51.460;7.090;2022-09-12T01:05:52;98451.25;;;9.92;90.66
12360;BME280;6244;51.460;7.090;2022-09-12T01:10:54;98448.94;;;9.88;90.83
12360;BME280;6244;51.460;7.090;2022-09-12T01:15:51;98449.69;;;9.90;90.88
12360;BME280;6244;51.460;7.090;2022-09-12T01:20:55;98449.41;;;9.80;90.74
12360;BME280;6244;51.460;7.090;2022-09-12T01:26:06;98449.41;;;9.80;90.72
12360;BME280;6244;51.460;7.090;2022-09-12T01:31:16;98445.50;;;9.73;90.87
12360;BME280;6244;51.460;7.090;2022-09-12T01:36:31;98443.53;;;9.77;91.04
12360;BME280;6244;51.460;7.090;2022-09-12T01:41:38;98442.69;;;9.76;90.88
12360;BME280;6244;51.460;7.090;2022-09-12T01:46:41;98438.13;;;9.80;91.06
12360;BME280;6244;51.460;7.090;2022-09-12T01:51:42;98438.84;;;9.82;91.16
12360;BME280;6244;51.460;7.090;2022-09-12T01:56:41;98431.84;;;9.82;90.97
12360;BME280;6244;51.460;7.090;2022-09-12T02:01:45;98431.28;;;9.77;90.92
12360;BME280;6244;51.460;7.090;2022-09-12T02:06:48;98423.72;;;9.73;91.08
12360;BME280;6244;51.460;7.090;2022-09-12T02:11:45;98422.06;;;9.72;91.01
12360;BME280;6244;51.460;7.090;2022-09-12T02:16:48;98414.97;;;9.74;90.95
12360;BME280;6244;51.460;7.090;2022-09-12T02:21:50;98417.66;;;9.72;91.37
12360;BME280;6244;51.460;7.090;2022-09-12T02:26:51;98412.06;;;9.64;91.14
12360;BME280;6244;51.460;7.090;2022-09-12T02:31:53;98408.97;;;9.58;91.03
12360;BME280;6244;51.460;7.090;2022-09-12T02:37:00;98407.41;;;9.55;90.93
12360;BME280;6244;51.460;7.090;2022-09-12T02:41:59;98400.31;;;9.57;90.98
12360;BME280;6244;51.460;7.090;2022-09-12T02:47:00;98397.03;;;9.54;90.96
12360;BME280;6244;51.460;7.090;2022-09-12T02:52:00;98392.66;;;9.54;91.09
12360;BME280;6244;51.460;7.090;2022-09-12T02:56:57;98391.81;;;9.54;90.87
12360;BME280;6244;51.460;7.090;2022-09-12T03:02:04;98393.28;;;9.58;90.96
12360;BME280;6244;51.460;7.090;2022-09-12T03:07:10;98381.34;;;9.54;91.09
12360;BME280;6244;51.460;7.090;2022-09-12T03:12:15;98384.06;;;9.52;90.97
12360;BME280;6244;51.460;7.090;2022-09-12T03:17:23;98380.69;;;9.50;91.24
12360;BME280;6244;51.460;7.090;2022-09-12T03:22:28;98374.91;;;9.45;91.20
12360;BME280;6244;51.460;7.090;2022-09-12T03:27:30;98386.50;;;9.41;90.97
12360;BME280;6244;51.460;7.090;2022-09-12T03:32:43;98386.69;;;9.38;91.30
12360;BME280;6244;51.460;7.090;2022-09-12T03:37:40;98371.09;;;9.37;91.26
12360;BME280;6244;51.460;7.090;2022-09-12T03:42:37;98380.78;;;9.35;91.26
12360;BME280;6244;51.460;7.090;2022-09-12T03:47:34;98382.50;;;9.36;91.27
12360;BME280;6244;51.460;7.090;2022-09-12T03:52:32;98377.16;;;9.37;91.14
12360;BME280;6244;51.460;7.090;2022-09-12T03:57:28;98373.97;;;9.32;91.06
12360;BME280;6244;51.460;7.090;2022-09-12T04:02:25;98373.31;;;9.29;91.28
12360;BME280;6244;51.460;7.090;2022-09-12T04:07:21;98375.94;;;9.29;91.22
12360;BME280;6244;51.460;7.090;2022-09-12T04:12:19;98373.59;;;9.24;90.96
12360;BME280;6244;51.460;7.090;2022-09-12T04:17:15;98372.41;;;9.30;91.35
12360;BME280;6244;51.460;7.090;2022-09-12T04:22:12;98368.00;;;9.30;91.13
12360;BME280;6244;51.460;7.090;2022-09-12T04:27:09;98368.19;;;9.27;91.16
12360;BME280;6244;51.460;7.090;2022-09-12T04:32:07;98365.66;;;9.26;91.36
12360;BME280;6244;51.460;7.090;2022-09-12T04:37:03;98362.06;;;9.28;91.23
12360;BME280;6244;51.460;7.090;2022-09-12T04:42:00;98363.53;;;9.32;91.25
12360;BME280;6244;51.460;7.090;2022-09-12T04:46:56;98361.84;;;9.31;91.32
12360;BME280;6244;51.460;7.090;2022-09-12T04:51:54;98360.91;;;9.32;91.22
12360;BME280;6244;51.460;7.090;2022-09-12T04:56:51;98357.63;;;9.43;91.25
12360;BME280;6244;51.460;7.090;2022-09-12T05:01:49;98352.88;;;9.49;91.37
12360;BME280;6244;51.460;7.090;2022-09-12T05:06:46;98348.28;;;9.53;91.41
12360;BME280;6244;51.460;7.090;2022-09-12T05:11:44;98345.03;;;9.49;91.35
12360;BME280;6244;51.460;7.090;2022-09-12T05:16:41;98341.00;;;9.58;91.25
12360;BME280;6244;51.460;7.090;2022-09-12T05:21:37;98343.69;;;9.70;91.02
12360;BME280;6244;51.460;7.090;2022-09-12T05:26:34;98340.28;;;9.82;90.99
12360;BME280;6244;51.460;7.090;2022-09-12T05:31:32;98342.78;;;9.98;91.10
12360;BME280;6244;51.460;7.090;2022-09-12T05:36:29;98335.25;;;10.06;90.82
12360;BME280;6244;51.460;7.090;2022-09-12T05:41:27;98330.19;;;10.17;90.50
12360;BME280;6244;51.460;7.090;2022-09-12T05:46:26;98335.03;;;10.23;90.48
12360;BME280;6244;51.460;7.090;2022-09-12T05:51:26;98330.44;;;10.26;90.30
12360;BME280;6244;51.460;7.090;2022-09-12T05:56:25;98334.13;;;10.36;89.90
12360;BME280;6244;51.460;7.090;2022-09-12T06:01:22;98347.16;;;10.50;89.68
12360;BME280;6244;51.460;7.090;2022-09-12T06:06:22;98354.22;;;10.75;89.83
12360;BME280;6244;51.460;7.090;2022-09-12T06:11:21;98359.16;;;11.05;89.04
12360;BME280;6244;51.460;7.090;2022-09-12T06:16:20;98364.41;;;11.30;88.21
12360;BME280;6244;51.460;7.090;2022-09-12T06:21:17;98366.47;;;11.62;88.00
12360;BME280;6244;51.460;7.090;2022-09-12T06:26:16;98364.47;;;11.78;86.93
12360;BME280;6244;51.460;7.090;2022-09-12T06:31:18;98366.97;;;11.80;86.59
12360;BME280;6244;51.460;7.090;2022-09-12T06:36:17;98360.84;;;11.92;87.04
12360;BME280;6244;51.460;7.090;2022-09-12T06:41:15;98362.81;;;12.01;85.83
12360;BME280;6244;51.460;7.090;2022-09-12T06:46:11;98358.91;;;12.06;85.49
12360;BME280;6244;51.460;7.090;2022-09-12T06:51:11;98363.66;;;12.25;85.30
12360;BME280;6244;51.460;7.090;2022-09-12T06:56:10;98362.69;;;12.49;84.25
12360;BME280;6244;51.460;7.090;2022-09-12T07:01:09;98362.31;;;12.77;84.13
12360;BME280;6244;51.460;7.090;2022-09-12T07:06:07;98367.63;;;13.00;82.98
12360;BME280;6244;51.460;7.090;2022-09-12T07:11:10;98371.75;;;13.26;83.05
12360;BME280;6244;51.460;7.090;2022-09-12T07:16:08;98377.50;;;13.53;81.95
12360;BME280;6244;51.460;7.090;2022-09-12T07:21:06;98380.38;;;13.61;81.51
12360;BME280;6244;51.460;7.090;2022-09-12T07:26:03;98375.94;;;13.72;80.95
12360;BME280;6244;51.460;7.090;2022-09-12T07:31:05;98381.81;;;13.76;80.94
12360;BME280;6244;51.460;7.090;2022-09-12T07:36:04;98376.66;;;13.85;80.14
12360;BME280;6244;51.460;7.090;2022-09-12T07:41:09;98372.69;;;13.91;80.31
12360;BME280;6244;51.460;7.090;2022-09-12T07:46:07;98373.84;;;14.09;80.03
12360;BME280;6244;51.460;7.090;2022-09-12T07:51:05;98372.38;;;14.27;80.17
12360;BME280;6244;51.460;7.090;2022-09-12T07:56:03;98370.47;;;14.29;79.68
12360;BME280;6244;51.460;7.090;2022-09-12T08:01:03;98370.63;;;14.48;79.61
12360;BME280;6244;51.460;7.090;2022-09-12T08:06:04;98389.75;;;14.93;79.29
12360;BME280;6244;51.460;7.090;2022-09-12T08:11:04;98395.00;;;15.84;78.33
12360;BME280;6244;51.460;7.090;2022-09-12T08:16:02;98407.59;;;16.51;78.42
12360;BME280;6244;51.460;7.090;2022-09-12T08:21:03;98409.81;;;16.84;78.33
12360;BME280;6244;51.460;7.090;2022-09-12T08:26:02;98413.16;;;16.95;78.29
12360;BME280;6244;51.460;7.090;2022-09-12T08:30:59;98413.13;;;17.33;78.52
12360;BME280;6244;51.460;7.090;2022-09-12T08:36:03;98411.69;;;17.67;79.00
12360;BME280;6244;51.460;7.090;2022-09-12T08:41:03;98418.53;;;19.21;80.95
12360;BME280;6244;51.460;7.090;2022-09-12T08:46:07;98423.31;;;20.70;92.41
12360;BME280;6244;51.460;7.090;2022-09-12T08:51:10;98431.22;;;20.95;84.93
12360;BME280;6244;51.460;7.090;2022-09-12T08:56:09;98423.19;;;20.30;76.96
12360;BME280;6244;51.460;7.090;2022-09-12T09:01:09;98442.03;;;22.29;79.09
12360;BME280;6244;51.460;7.090;2022-09-12T09:06:22;98428.66;;;20.28;74.20
12360;BME280;6244;51.460;7.090;2022-09-12T09:11:32;98421.91;;;19.75;67.00
12360;BME280;6244;51.460;7.090;2022-09-12T09:16:31;98429.22;;;20.97;74.08
12360;BME280;6244;51.460;7.090;2022-09-12T09:21:34;98435.00;;;21.73;76.97
12360;BME280;6244;51.460;7.090;2022-09-12T09:26:40;98433.38;;;21.24;76.09
12360;BME280;6244;51.460;7.090;2022-09-12T09:31:40;98424.47;;;20.75;74.58
12360;BME280;6244;51.460;7.090;2022-09-12T09:36:46;98425.44;;;19.32;67.68
12360;BME280;6244;51.460;7.090;2022-09-12T09:41:48;98427.69;;;20.29;67.72
12360;BME280;6244;51.460;7.090;2022-09-12T09:46:49;98441.88;;;24.40;70.42
12360;BME280;6244;51.460;7.090;2022-09-12T09:51:51;98451.78;;;26.01;58.51
12360;BME280;6244;51.460;7.090;2022-09-12T09:56:48;98440.91;;;26.09;57.93
12360;BME280;6244;51.460;7.090;2022-09-12T10:01:47;98429.16;;;24.77;63.79
12360;BME280;6244;51.460;7.090;2022-09-12T10:06:44;98418.19;;;24.58;60.75
12360;BME280;6244;51.460;7.090;2022-09-12T10:11:43;98449.25;;;27.48;47.63
12360;BME280;6244;51.460;7.090;2022-09-12T10:16:49;98435.41;;;27.44;48.19
12360;BME280;6244;51.460;7.090;2022-09-12T10:21:49;98437.88;;;27.52;46.64
12360;BME280;6244;51.460;7.090;2022-09-12T10:26:52;98433.66;;;27.04;43.86
12360;BME280;6244;51.460;7.090;2022-09-12T10:31:51;98414.03;;;25.82;50.10
12360;BME280;6244;51.460;7.090;2022-09-12T10:36:51;98411.25;;;26.30;51.07
12360;BME280;6244;51.460;7.090;2022-09-12T10:41:51;98412.19;;;26.57;46.21
12360;BME280;6244;51.460;7.090;2022-09-12T10:46:47;98410.13;;;25.84;46.11
12360;BME280;6244;51.460;7.090;2022-09-12T10:51:44;98404.25;;;26.90;45.23
12360;BME280;6244;51.460;7.090;2022-09-12T10:56:46;98396.56;;;25.92;46.43
12360;BME280;6244;51.460;7.090;2022-09-12T11:01:53;98386.75;;;27.26;45.23
12360;BME280;6244;51.460;7.090;2022-09-12T11:07:20;98394.41;;;27.29;42.06
12360;BME280;6244;51.460;7.090;2022-09-12T11:12:23;98398.13;;;27.54;42.26
12360;BME280;6244;51.460;7.090;2022-09-12T11:17:35;98402.13;;;28.35;40.33
12360;BME280;6244;51.460;7.090;2022-09-12T11:22:59;98397.03;;;28.07;39.64
12360;BME280;6244;51.460;7.090;2022-09-12T11:28:15;98390.53;;;29.16;40.32
12360;BME280;6244;51.460;7.090;2022-09-12T11:33:33;98370.13;;;26.84;41.17
12360;BME280;6244;51.460;7.090;2022-09-12T11:38:51;98379.28;;;27.54;42.23
12360;BME280;6244;51.460;7.090;2022-09-12T11:43:52;98357.75;;;26.42;45.85
12360;BME280;6244;51.460;7.090;2022-09-12T11:48:55;98359.06;;;26.59;42.80
12360;BME280;6244;51.460;7.090;2022-09-12T11:54:00;98360.44;;;27.22;41.87
12360;BME280;6244;51.460;7.090;2022-09-12T11:59:03;98361.78;;;28.09;39.11
12360;BME280;6244;51.460;7.090;2022-09-12T12:04:10;98364.34;;;27.91;39.62
12360;BME280;6244;51.460;7.090;2022-09-12T12:09:10;98347.34;;;26.86;40.64
12360;BME280;6244;51.460;7.090;2022-09-12T12:14:13;98338.50;;;27.44;42.03
12360;BME280;6244;51.460;7.090;2022-09-12T12:19:30;98348.03;;;27.47;40.22
12360;BME280;6244;51.460;7.090;2022-09-12T12:24:27;98327.53;;;26.27;43.56
12360;BME280;6244;51.460;7.090;2022-09-12T12:29:41;98322.50;;;25.77;42.30
12360;BME280;6244;51.460;7.090;2022-09-12T12:34:41;98311.44;;;24.76;47.88
12360;BME280;6244;51.460;7.090;2022-09-12T12:39:55;98296.50;;;24.52;48.13
12360;BME280;6244;51.460;7.090;2022-09-12T12:44:55;98285.81;;;23.67;50.26
12360;BME280;6244;51.460;7.090;2022-09-12T12:49:55;98284.53;;;23.63;51.51
12360;BME280;6244;51.460;7.090;2022-09-12T12:54:55;98278.63;;;22.86;56.25
12360;BME280;6244;51.460;7.090;2022-09-12T12:59:55;98260.56;;;23.03;56.11
12360;BME280;6244;51.460;7.090;2022-09-12T13:04:55;98263.56;;;23.37;55.86
12360;BME280;6244;51.460;7.090;2022-09-12T13:09:54;98243.03;;;23.52;50.52
12360;BME280;6244;51.460;7.090;2022-09-12T13:14:53;98248.38;;;23.38;52.28
12360;BME280;6244;51.460;7.090;2022-09-12T13:19:53;98246.06;;;23.49;51.54
12360;BME280;6244;51.460;7.090;2022-09-12T13:24:51;98239.22;;;23.47;51.77
12360;BME280;6244;51.460;7.090;2022-09-12T13:29:48;98237.53;;;23.02;52.44
12360;BME280;6244;51.460;7.090;2022-09-12T13:34:59;98221.00;;;22.69;53.34
12360;BME280;6244;51.460;7.090;2022-09-12T13:40:15;98217.16;;;22.86;50.65
12360;BME280;6244;51.460;7.090;2022-09-12T13:45:17;98224.94;;;22.73;51.63
12360;BME280;6244;51.460;7.090;2022-09-12T13:50:17;98220.59;;;23.09;50.03
12360;BME280;6244;51.460;7.090;2022-09-12T13:55:24;98218.53;;;22.97;49.96
12360;BME280;6244;51.460;7.090;2022-09-12T14:00:23;98217.72;;;22.96;49.77
12360;BME280;6244;51.460;7.090;2022-09-12T14:05:23;98216.97;;;23.02;50.47
12360;BME280;6244;51.460;7.090;2022-09-12T14:10:26;98217.38;;;23.29;55.27
12360;BME280;6244;51.460;7.090;2022-09-12T14:15:27;98211.06;;;22.78;51.49
12360;BME280;6244;51.460;7.090;2022-09-12T14:20:26;98193.38;;;22.77;54.43
12360;BME280;6244;51.460;7.090;2022-09-12T14:25:34;98194.38;;;22.76;53.61
12360;BME280;6244;51.460;7.090;2022-09-12T14:30:34;98184.75;;;22.52;50.38
12360;BME280;6244;51.460;7.090;2022-09-12T14:35:31;98184.53;;;22.91;52.00
12360;BME280;6244;51.460;7.090;2022-09-12T14:40:29;98183.06;;;23.17;50.67
12360;BME280;6244;51.460;7.090;2022-09-12T14:45:28;98174.50;;;23.07;51.18
12360;BME280;6244;51.460;7.090;2022-09-12T14:50:27;98167.00;;;22.74;46.54
12360;BME280;6244;51.460;7.090;2022-09-12T14:55:28;98150.34;;;22.86;49.78
12360;BME280;6244;51.460;7.090;2022-09-12T15:00:26;98159.28;;;22.79;47.30
12360;BME280;6244;51.460;7.090;2022-09-12T15:05:25;98145.19;;;22.85;52.80
12360;BME280;6244;51.460;7.090;2022-09-12T15:10:24;98142.06;;;22.96;50.34
12360;BME280;6244;51.460;7.090;2022-09-12T15:15:22;98142.34;;;22.86;51.02
12360;BME280;6244;51.460;7.090;2022-09-12T15:20:19;98141.78;;;23.20;49.17
12360;BME280;6244;51.460;7.090;2022-09-12T15:25:17;98148.13;;;23.04;48.29
12360;BME280;6244;51.460;7.090;2022-09-12T15:30:13;98136.53;;;23.12;47.66
12360;BME280;6244;51.460;7.090;2022-09-12T15:35:14;98128.53;;;22.68;48.54
12360;BME280;6244;51.460;7.090;2022-09-12T15:40:13;98133.03;;;22.53;47.84
12360;BME280;6244;51.460;7.090;2022-09-12T15:45:15;98117.88;;;22.09;48.79
12360;BME280;6244;51.460;7.090;2022-09-12T15:50:14;98118.16;;;22.14;49.50
12360;BME280;6244;51.460;7.090;2022-09-12T15:55:16;98114.94;;;22.04;51.74
12360;BME280;6244;51.460;7.090;2022-09-12T16:00:14;98101.47;;;21.97;50.52
12360;BME280;6244;51.460;7.090;2022-09-12T16:05:14;98111.78;;;21.78;50.58
12360;BME280;6244;51.460;7.090;2022-09-12T16:10:16;98095.78;;;21.78;55.91
12360;BME280;6244;51.460;7.090;2022-09-12T16:15:16;98086.91;;;21.55;54.67
12360;BME280;6244;51.460;7.090;2022-09-12T16:20:13;98084.06;;;21.33;57.40
12360;BME280;6244;51.460;7.090;2022-09-12T16:25:10;98072.72;;;21.01;57.51
12360;BME280;6244;51.460;7.090;2022-09-12T16:30:09;98058.47;;;20.86;62.76
12360;BME280;6244;51.460;7.090;2022-09-12T16:35:07;98056.81;;;20.85;60.34
12360;BME280;6244;51.460;7.090;2022-09-12T16:40:05;98048.16;;;20.83;61.44
12360;BME280;6244;51.460;7.090;2022-09-12T16:45:02;98056.19;;;20.75;64.63
12360;BME280;6244;51.460;7.090;2022-09-12T16:50:00;98045.41;;;20.68;68.07
12360;BME280;6244;51.460;7.090;2022-09-12T16:54:57;98048.09;;;20.60;69.28
12360;BME280;6244;51.460;7.090;2022-09-12T16:59:53;98038.63;;;20.50;69.83
12360;BME280;6244;51.460;7.090;2022-09-12T17:04:50;98031.88;;;20.31;67.40
12360;BME280;6244;51.460;7.090;2022-09-12T17:09:48;98029.88;;;20.25;67.63
12360;BME280;6244;51.460;7.090;2022-09-12T17:14:46;98029.25;;;20.15;67.85
12360;BME280;6244;51.460;7.090;2022-09-12T17:19:42;98025.78;;;19.99;70.20
12360;BME280;6244;51.460;7.090;2022-09-12T17:24:39;98026.13;;;19.72;69.11
12360;BME280;6244;51.460;7.090;2022-09-12T17:29:37;98014.94;;;19.20;67.31
12360;BME280;6244;51.460;7.090;2022-09-12T17:34:35;98004.72;;;18.75;64.56
12360;BME280;6244;51.460;7.090;2022-09-12T17:39:33;97989.47;;;18.36;64.23
12360;BME280;6244;51.460;7.090;2022-09-12T17:44:30;97991.41;;;18.00;60.80
12360;BME280;6244;51.460;7.090;2022-09-12T17:49:30;97998.50;;;17.66;57.72
12360;BME280;6244;51.460;7.090;2022-09-12T17:54:27;98001.06;;;17.40;56.39
12360;BME280;6244;51.460;7.090;2022-09-12T17:59:33;98001.00;;;17.15;56.00
12360;BME280;6244;51.460;7.090;2022-09-12T18:04:31;97982.47;;;16.97;56.20
12360;BME280;6244;51.460;7.090;2022-09-12T18:09:27;97974.50;;;16.80;52.63
12360;BME280;6244;51.460;7.090;2022-09-12T18:14:24;97974.75;;;16.69;54.90
12360;BME280;6244;51.460;7.090;2022-09-12T18:19:22;97975.25;;;16.55;52.23
12360;BME280;6244;51.460;7.090;2022-09-12T18:24:20;97975.47;;;16.34;53.56
12360;BME280;6244;51.460;7.090;2022-09-12T18:29:17;97977.75;;;16.19;54.74
12360;BME280;6244;51.460;7.090;2022-09-12T18:34:15;97974.63;;;16.06;54.26
12360;BME280;6244;51.460;7.090;2022-09-12T18:39:13;97967.41;;;15.99;54.10
12360;BME280;6244;51.460;7.090;2022-09-12T18:44:11;97950.59;;;16.00;52.36
12360;BME280;6244;51.460;7.090;2022-09-12T18:49:08;97966.25;;;16.11;51.71
12360;BME280;6244;51.460;7.090;2022-09-12T18:54:06;97974.09;;;15.93;51.57
12360;BME280;6244;51.460;7.090;2022-09-12T18:59:06;97964.84;;;15.80;53.77
12360;BME280;6244;51.460;7.090;2022-09-12T19:04:04;97956.00;;;15.98;56.82
12360;BME280;6244;51.460;7.090;2022-09-12T19:09:02;97960.72;;;16.32;56.15
12360;BME280;6244;51.460;7.090;2022-09-12T19:14:01;97944.06;;;16.31;54.72
12360;BME280;6244;51.460;7.090;2022-09-12T19:18:58;97943.75;;;16.34;54.78
12360;BME280;6244;51.460;7.090;2022-09-12T19:23:57;97936.84;;;16.23;53.58
12360;BME280;6244;51.460;7.090;2022-09-12T19:28:54;97930.06;;;16.11;53.20
12360;BME280;6244;51.460;7.090;2022-09-12T19:33:51;97921.66;;;15.98;54.54
12360;BME280;6244;51.460;7.090;2022-09-12T19:38:48;97934.53;;;15.84;55.96
12360;BME280;6244;51.460;7.090;2022-09-12T19:43:46;97934.16;;;15.69;57.46
12360;BME280;6244;51.460;7.090;2022-09-12T19:48:43;97935.84;;;15.61;59.73
12360;BME280;6244;51.460;7.090;2022-09-12T19:53:40;97931.56;;;15.60;61.20
12360;BME280;6244;51.460;7.090;2022-09-12T19:58:38;97934.78;;;15.54;61.67
12360;BME280;6244;51.460;7.090;2022-09-12T20:03:36;97934.63;;;15.46;61.67
12360;BME280;6244;51.460;7.090;2022-09-12T20:08:33;97929.94;;;15.40;62.17
12360;BME280;6244;51.460;7.090;2022-09-12T20:13:31;97924.78;;;15.38;62.20
12360;BME280;6244;51.460;7.090;2022-09-12T20:18:27;97922.97;;;15.29;62.86
12360;BME280;6244;51.460;7.090;2022-09-12T20:23:25;97926.84;;;15.25;62.96
12360;BME280;6244;51.460;7.090;2022-09-12T20:28:22;97921.31;;;15.09;63.16
12360;BME280;6244;51.460;7.090;2022-09-12T20:33:18;97917.75;;;15.01;64.28
12360;BME280;6244;51.460;7.090;2022-09-12T20:38:15;97912.19;;;14.94;65.55
12360;BME280;6244;51.460;7.090;2022-09-12T20:43:13;97906.75;;;14.96;65.63
12360;BME280;6244;51.460;7.090;2022-09-12T20:48:09;97907.72;;;15.04;65.90
12360;BME280;6244;51.460;7.090;2022-09-12T20:53:06;97898.81;;;15.15;65.66
12360;BME280;6244;51.460;7.090;2022-09-12T20:58:02;97882.84;;;15.16;65.88
12360;BME280;6244;51.460;7.090;2022-09-12T21:03:00;97880.63;;;15.21;65.27
12360;BME280;6244;51.460;7.090;2022-09-12T21:07:58;97867.00;;;15.26;65.04
12360;BME280;6244;51.460;7.090;2022-09-12T21:12:55;97854.88;;;15.33;63.79
12360;BME280;6244;51.460;7.090;2022-09-12T21:17:51;97852.25;;;15.33;63.74
12360;BME280;6244;51.460;7.090;2022-09-12T21:22:49;97845.31;;;15.22;64.55
12360;BME280;6244;51.460;7.090;2022-09-12T21:27:46;97851.09;;;15.08;64.83
12360;BME280;6244;51.460;7.090;2022-09-12T21:32:42;97843.59;;;15.04;65.22
12360;BME280;6244;51.460;7.090;2022-09-12T21:37:39;97849.94;;;15.11;64.66
12360;BME280;6244;51.460;7.090;2022-09-12T21:42:37;97850.09;;;15.19;64.05
12360;BME280;6244;51.460;7.090;2022-09-12T21:47:33;97845.75;;;15.27;63.60
12360;BME280;6244;51.460;7.090;2022-09-12T21:52:29;97861.56;;;15.37;64.20
12360;BME280;6244;51.460;7.090;2022-09-12T21:57:26;97869.13;;;15.68;64.86
12360;BME280;6244;51.460;7.090;2022-09-12T22:02:24;97873.25;;;15.71;63.63
12360;BME280;6244;51.460;7.090;2022-09-12T22:07:21;97870.47;;;15.72;63.33
12360;BME280;6244;51.460;7.090;2022-09-12T22:12:18;97852.63;;;15.57;60.71
12360;BME280;6244;51.460;7.090;2022-09-12T22:17:15;97865.16;;;15.45;60.24
12360;BME280;6244;51.460;7.090;2022-09-12T22:22:13;97871.72;;;15.22;58.85
12360;BME280;6244;51.460;7.090;2022-09-12T22:27:27;97876.72;;;15.25;59.60
12360;BME280;6244;51.460;7.090;2022-09-12T22:32:24;97876.97;;;15.32;59.84
12360;BME280;6244;51.460;7.090;2022-09-12T22:37:21;97868.06;;;15.33;60.25
12360;BME280;6244;51.460;7.090;2022-09-12T22:42:18;97862.13;;;15.31;60.14
12360;BME280;6244;51.460;7.090;2022-09-12T22:47:14;97867.94;;;15.34;60.51
12360;BME280;6244;51.460;7.090;2022-09-12T22:52:14;97870.31;;;15.37;59.99
12360;BME280;6244;51.460;7.090;2022-09-12T22:57:12;97869.34;;;15.29;59.47
12360;BME280;6244;51.460;7.090;2022-09-12T23:02:09;97871.00;;;15.30;59.45
12360;BME280;6244;51.460;7.090;2022-09-12T23:07:05;97872.41;;;15.24;58.95
12360;BME280;6244;51.460;7.090;2022-09-12T23:12:02;97872.00;;;15.29;59.29
12360;BME280;6244;51.460;7.090;2022-09-12T23:17:00;97875.34;;;15.40;59.82
12360;BME280;6244;51.460;7.090;2022-09-12T23:21:56;97882.78;;;15.54;60.09
12360;BME280;6244;51.460;7.090;2022-09-12T23:26:53;97870.53;;;15.63;60.43
12360;BME280;6244;51.460;7.090;2022-09-12T23:31:49;97867.97;;;15.71;60.87
12360;BME280;6244;51.460;7.090;2022-09-12T23:36:47;97854.97;;;15.60;59.58
12360;BME280;6244;51.460;7.090;2022-09-12T23:41:44;97863.22;;;15.47;58.94
12360;BME280;6244;51.460;7.090;2022-09-12T23:46:40;97848.38;;;15.46;59.45
12360;BME280;6244;51.460;7.090;2022-09-12T23:51:37;97845.03;;;15.35;57.53
12360;BME280;6244;51.460;7.090;2022-09-12T23:56:35;97853.81;;;15.26;57.56
